Time;durP1;ratioP1;P1;durP2;ratioP2;P2;SDS_P1;SDS_P2;PMS_P1;PMS_P2;Temp;Humidity;BMP_temperature;BMP_pressure;BME280_temperature;BME280_humidity;BME280_pressure;Samples;Min_cycle;Max_cycle;Signal;HPM_P1;HPM_P2
2022/11/14 00:01:06;;;;;;;;;;;;;;;6.24;96.19;99261.34;8332016;28;20018;-76
2022/11/14 00:05:08;;;;;;;;;;;;;;;6.23;96.47;99254.47;8336819;28;20277;-76
2022/11/14 00:09:09;;;;;;;;;;;;;;;6.23;96.40;99254.47;8336501;28;19995;-76
2022/11/14 00:13:10;;;;;;;;;;;;;;;6.02;95.72;99245.66;8333075;28;19925;-76
2022/11/14 00:17:12;;;;;;;;;;;;;;;6.05;96.48;99243.09;8333036;28;19928;-76
2022/11/14 00:21:13;;;;;;;;;;;;;;;6.05;96.72;99240.53;8356140;28;19929;-76
2022/11/14 00:25:14;;;;;;;;;;;;;;;6.08;96.59;99234.53;8318266;28;20463;-76
2022/11/14 00:29:16;;;;;;;;;;;;;;;6.12;96.87;99232.88;8337314;28;19928;-76
2022/11/14 00:33:18;;;;;;;;;;;;;;;6.15;96.60;99228.63;8778793;22;19965;-76
2022/11/14 00:37:21;;;;;;;;;;;;;;;6.16;96.39;99230.34;8306754;28;19929;-76
2022/11/14 00:41:22;;;;;;;;;;;;;;;6.17;96.08;99224.34;8308012;28;19995;-76
2022/11/14 00:45:24;;;;;;;;;;;;;;;6.15;95.74;99208.00;8274748;28;19929;-76
2022/11/14 00:49:26;;;;;;;;;;;;;;;6.16;95.22;99214.03;8321255;28;19972;-76
2022/11/14 00:53:27;;;;;;;;;;;;;;;6.15;95.46;99204.56;8318155;28;19929;-76
2022/11/14 00:57:28;;;;;;;;;;;;;;;6.12;95.30;99204.53;8292452;28;19929;-75
2022/11/14 01:01:30;;;;;;;;;;;;;;;6.10;95.49;99201.03;8316099;28;19935;-76
2022/11/14 01:05:31;;;;;;;;;;;;;;;6.06;95.57;99197.59;8305865;28;19984;-76
2022/11/14 01:09:32;;;;;;;;;;;;;;;6.02;95.19;99190.69;8309455;28;19932;-76
2022/11/14 01:13:34;;;;;;;;;;;;;;;5.96;95.33;99188.91;8304153;28;19991;-76
2022/11/14 01:17:35;;;;;;;;;;;;;;;5.95;95.37;99183.75;8297547;28;20059;-76
2022/11/14 01:21:37;;;;;;;;;;;;;;;5.99;95.52;99178.63;8310856;28;19939;-76
2022/11/14 01:25:39;;;;;;;;;;;;;;;6.01;95.52;99178.63;8291450;28;19928;-76
2022/11/14 01:29:40;;;;;;;;;;;;;;;6.05;95.57;99175.25;8308072;28;20969;-76
2022/11/14 01:33:42;;;;;;;;;;;;;;;6.06;95.25;99167.50;8305361;28;19928;-76
2022/11/14 01:37:43;;;;;;;;;;;;;;;6.06;94.82;99161.50;8323040;28;20037;-76
2022/11/14 01:41:44;;;;;;;;;;;;;;;6.05;95.10;99157.19;8323569;28;19986;-76
2022/11/14 01:45:56;;;;;;;;;;;;;;;6.07;94.76;99152.91;8297122;28;19929;-76
2022/11/14 01:49:59;;;;;;;;;;;;;;;6.07;94.80;99146.06;8256968;28;20576;-76
2022/11/14 01:54:04;;;;;;;;;;;;;;;6.05;94.65;99149.47;8255572;28;19933;-76
2022/11/14 01:58:06;;;;;;;;;;;;;;;6.07;95.00;99151.19;8269021;28;19938;-76
2022/11/14 02:02:11;;;;;;;;;;;;;;;6.09;94.88;99137.47;8271076;28;19933;-76
2022/11/14 02:06:15;;;;;;;;;;;;;;;6.11;94.67;99138.38;8277798;28;19944;-76
2022/11/14 02:10:19;;;;;;;;;;;;;;;6.12;94.63;99132.38;8282561;28;19933;-76
2022/11/14 02:14:20;;;;;;;;;;;;;;;6.13;94.76;99123.78;8274214;28;19994;-76
2022/11/14 02:18:22;;;;;;;;;;;;;;;6.12;94.57;99116.91;8250079;28;19941;-76
2022/11/14 02:22:23;;;;;;;;;;;;;;;6.11;94.77;99098.00;8256410;28;20247;-75
2022/11/14 02:26:24;;;;;;;;;;;;;;;6.12;94.58;99098.84;8268741;28;19937;-76
2022/11/14 02:30:26;;;;;;;;;;;;;;;6.10;94.82;99087.66;8268713;28;19933;-76
2022/11/14 02:34:28;;;;;;;;;;;;;;;6.09;95.11;99083.34;8273342;28;20459;-75
2022/11/14 02:38:30;;;;;;;;;;;;;;;6.11;95.02;99084.25;8286254;28;20441;-76
2022/11/14 02:42:32;;;;;;;;;;;;;;;6.10;95.25;99079.91;8271871;28;19940;-76
2022/11/14 02:46:33;;;;;;;;;;;;;;;6.10;95.79;99074.75;8270679;28;19925;-76
2022/11/14 02:50:34;;;;;;;;;;;;;;;6.12;96.07;99071.38;8285519;28;19933;-76
2022/11/14 02:54:36;;;;;;;;;;;;;;;6.14;96.07;99076.53;8266627;28;19930;-76
2022/11/14 02:58:37;;;;;;;;;;;;;;;6.14;96.02;99055.91;8291114;28;19929;-76
2022/11/14 03:02:38;;;;;;;;;;;;;;;6.15;96.00;99061.06;8279922;28;20000;-76
2022/11/14 03:06:40;;;;;;;;;;;;;;;6.16;96.13;99051.63;8279172;28;19938;-76
2022/11/14 03:10:41;;;;;;;;;;;;;;;6.17;96.19;99043.91;8264035;28;19930;-76
2022/11/14 03:14:42;;;;;;;;;;;;;;;6.19;96.28;99043.91;8264105;28;20338;-76
2022/11/14 03:18:44;;;;;;;;;;;;;;;6.21;96.39;99030.19;8275269;28;20536;-76
2022/11/14 03:22:45;;;;;;;;;;;;;;;6.24;96.53;99025.03;8285136;28;19983;-76
2022/11/14 03:26:46;;;;;;;;;;;;;;;6.25;96.42;99038.78;8276985;28;19929;-76
2022/11/14 03:30:47;;;;;;;;;;;;;;;6.24;96.38;99021.59;8273877;28;19933;-76
2022/11/14 03:34:49;;;;;;;;;;;;;;;6.25;96.52;99013.88;8283378;28;19933;-75
2022/11/14 03:38:50;;;;;;;;;;;;;;;6.28;96.68;99020.75;8294663;28;19930;-76
2022/11/14 03:42:51;;;;;;;;;;;;;;;6.28;96.69;99029.38;8261352;28;20579;-76
2022/11/14 03:46:53;;;;;;;;;;;;;;;6.31;96.75;99023.38;8288489;28;19935;-77
2022/11/14 03:50:54;;;;;;;;;;;;;;;6.32;96.58;99022.53;8275953;28;20306;-76
2022/11/14 03:54:55;;;;;;;;;;;;;;;6.32;96.69;99030.25;8295593;28;19929;-76
2022/11/14 03:58:57;;;;;;;;;;;;;;;6.30;97.01;99019.09;8292597;28;19937;-76
2022/11/14 04:02:58;;;;;;;;;;;;;;;6.29;96.96;99019.94;8269040;28;19964;-76
2022/11/14 04:07:00;;;;;;;;;;;;;;;6.28;97.10;99016.50;8255896;28;19944;-76
2022/11/14 04:11:03;;;;;;;;;;;;;;;6.27;97.34;99007.00;8269184;28;20012;-76
2022/11/14 04:15:04;;;;;;;;;;;;;;;6.28;97.44;99002.72;8265627;28;20020;-76
2022/11/14 04:19:06;;;;;;;;;;;;;;;6.29;97.71;98991.56;8307270;28;20024;-76
2022/11/14 04:23:07;;;;;;;;;;;;;;;6.32;97.85;98995.03;8320409;28;20020;-76
2022/11/14 04:27:10;;;;;;;;;;;;;;;6.32;97.80;98986.44;8307313;28;20024;-76
2022/11/14 04:31:11;;;;;;;;;;;;;;;6.33;98.10;98983.00;8299025;28;20040;-76
2022/11/14 04:35:13;;;;;;;;;;;;;;;6.33;98.10;98976.13;8298719;28;19929;-76
2022/11/14 04:39:14;;;;;;;;;;;;;;;6.35;98.02;98977.00;8318895;28;19940;-75
2022/11/14 04:43:16;;;;;;;;;;;;;;;6.36;97.95;98978.72;8318710;28;19932;-76
2022/11/14 04:47:17;;;;;;;;;;;;;;;6.38;97.96;98977.88;8319146;28;20332;-77
2022/11/14 04:51:19;;;;;;;;;;;;;;;6.38;98.34;98978.72;8299403;28;19979;-76
2022/11/14 04:55:20;;;;;;;;;;;;;;;6.41;97.98;98975.28;8298271;28;19939;-75
2022/11/14 04:59:21;;;;;;;;;;;;;;;6.40;98.34;98979.59;8315925;28;19943;-76
2022/11/14 05:03:23;;;;;;;;;;;;;;;6.43;98.44;98973.59;8326956;28;19929;-75
2022/11/14 05:07:24;;;;;;;;;;;;;;;6.44;98.44;98968.44;8323734;28;20006;-75
2022/11/14 05:11:26;;;;;;;;;;;;;;;6.46;98.69;98965.84;8312589;28;19933;-76
2022/11/14 05:15:29;;;;;;;;;;;;;;;6.48;98.66;98956.44;8312669;28;19928;-76
2022/11/14 05:19:31;;;;;;;;;;;;;;;6.48;98.78;98959.88;8317041;28;20020;-76
2022/11/14 05:23:32;;;;;;;;;;;;;;;6.51;98.97;98952.16;8329782;28;19929;-75
2022/11/14 05:27:34;;;;;;;;;;;;;;;6.54;98.89;98952.16;8295501;28;19987;-75
2022/11/14 05:31:35;;;;;;;;;;;;;;;6.56;99.00;98955.59;8316081;28;19960;-75
2022/11/14 05:35:37;;;;;;;;;;;;;;;6.59;99.13;98945.28;8321532;28;19929;-75
2022/11/14 05:39:38;;;;;;;;;;;;;;;6.60;99.26;98956.47;8315141;28;19929;-75
2022/11/14 05:43:39;;;;;;;;;;;;;;;6.62;99.29;98952.19;8315659;28;19929;-75
2022/11/14 05:47:41;;;;;;;;;;;;;;;6.64;99.12;98953.03;8297862;28;19929;-75
2022/11/14 05:51:42;;;;;;;;;;;;;;;6.65;99.02;98947.94;8303420;28;19933;-76
2022/11/14 05:55:44;;;;;;;;;;;;;;;6.69;99.05;98950.50;8299607;28;19991;-75
2022/11/14 05:59:45;;;;;;;;;;;;;;;6.70;99.24;98944.50;8323784;28;19929;-75
2022/11/14 06:03:47;;;;;;;;;;;;;;;6.70;99.49;98945.34;8298261;28;19933;-75
2022/11/14 06:07:53;;;;;;;;;;;;;;;6.73;99.84;98940.19;8322157;28;19986;-75
2022/11/14 06:11:55;;;;;;;;;;;;;;;6.77;99.69;98930.75;8322329;28;19929;-75
2022/11/14 06:16:00;;;;;;;;;;;;;;;6.79;99.82;98924.72;8317086;28;20340;-75
2022/11/14 06:20:02;;;;;;;;;;;;;;;6.81;99.68;98915.28;8318572;28;19929;-75
2022/11/14 06:24:04;;;;;;;;;;;;;;;6.81;99.87;98904.94;8315391;28;19929;-75
2022/11/14 06:28:05;;;;;;;;;;;;;;;6.84;100.00;98901.53;8316100;28;19929;-76
2022/11/14 06:32:07;;;;;;;;;;;;;;;6.86;99.72;98904.97;8325206;28;20297;-76
2022/11/14 06:36:08;;;;;;;;;;;;;;;6.89;99.94;98907.56;8327986;28;19928;-76
2022/11/14 06:40:10;;;;;;;;;;;;;;;6.91;99.74;98906.72;8324465;28;19994;-76
2022/11/14 06:44:13;;;;;;;;;;;;;;;6.91;100.00;98916.16;8326487;28;20749;-76
2022/11/14 06:48:15;;;;;;;;;;;;;;;6.93;100.00;98923.06;8315227;28;19929;-76
2022/11/14 06:52:16;;;;;;;;;;;;;;;6.96;100.00;98924.78;8320976;28;19958;-76
2022/11/14 06:56:19;;;;;;;;;;;;;;;7.00;100.00;98923.91;8322198;28;19929;-75
2022/11/14 07:00:20;;;;;;;;;;;;;;;7.04;100.00;98929.97;8316705;28;20695;-75
2022/11/14 07:04:22;;;;;;;;;;;;;;;7.06;100.00;98934.28;8316194;28;20698;-75
2022/11/14 07:08:23;;;;;;;;;;;;;;;7.09;100.00;98936.00;8310452;28;19932;-76
2022/11/14 07:12:24;;;;;;;;;;;;;;;7.11;100.00;98922.22;8340169;28;19979;-76
2022/11/14 07:16:30;;;;;;;;;;;;;;;7.13;99.93;98929.97;8318463;28;19955;-77
2022/11/14 07:20:31;;;;;;;;;;;;;;;7.13;100.00;98929.97;8324153;28;19929;-76
2022/11/14 07:24:34;;;;;;;;;;;;;;;7.18;100.00;98934.31;8329165;28;19995;-77
2022/11/14 07:28:39;;;;;;;;;;;;;;;7.21;100.00;98938.63;8307501;28;19929;-77
2022/11/14 07:32:41;;;;;;;;;;;;;;;7.23;100.00;98931.72;8305106;28;19929;-77
2022/11/14 07:36:42;;;;;;;;;;;;;;;7.26;100.00;98927.44;8333824;28;19937;-77
2022/11/14 07:40:51;;;;;;;;;;;;;;;7.30;100.00;98932.59;8328027;28;19991;-77
2022/11/14 07:44:59;;;;;;;;;;;;;;;7.32;100.00;98941.19;8334975;28;20043;-77
2022/11/14 07:49:01;;;;;;;;;;;;;;;7.35;100.00;98930.88;8322168;28;19956;-76
2022/11/14 07:53:02;;;;;;;;;;;;;;;7.38;100.00;98930.91;8326829;28;20382;-77
2022/11/14 07:57:04;;;;;;;;;;;;;;;7.40;99.84;98929.16;8323038;28;19937;-77
2022/11/14 08:01:06;;;;;;;;;;;;;;;7.43;99.46;98924.88;8304384;28;20003;-77
2022/11/14 08:05:07;;;;;;;;;;;;;;;7.45;99.65;98925.72;8326216;28;19929;-77
2022/11/14 08:09:09;;;;;;;;;;;;;;;7.48;99.70;98910.22;8328180;28;20567;-77
2022/11/14 08:13:10;;;;;;;;;;;;;;;7.52;99.93;98924.84;8322304;28;19933;-76
2022/11/14 08:17:32;;;;;;;;;;;;;;;7.56;99.38;98918.84;8322910;28;20512;-77
2022/11/14 08:21:34;;;;;;;;;;;;;;;7.58;99.67;98911.09;8328058;28;19925;-76
2022/11/14 08:25:36;;;;;;;;;;;;;;;7.61;99.16;98916.25;8323057;28;20304;-76
2022/11/14 08:29:37;;;;;;;;;;;;;;;7.64;98.97;98917.97;8319160;28;19994;-77
2022/11/14 08:33:38;;;;;;;;;;;;;;;7.67;99.07;98913.66;8321509;28;19940;-77
2022/11/14 08:37:40;;;;;;;;;;;;;;;7.70;99.19;98926.56;8324617;28;20457;-76
2022/11/14 08:41:41;;;;;;;;;;;;;;;7.72;99.11;98926.56;8330599;28;19929;-75
2022/11/14 08:45:42;;;;;;;;;;;;;;;7.75;98.87;98932.63;8313412;28;19929;-76
2022/11/14 08:49:43;;;;;;;;;;;;;;;7.77;99.37;98927.44;8321367;28;20524;-76
2022/11/14 08:53:45;;;;;;;;;;;;;;;7.79;99.19;98924.00;8319117;28;19929;-76
2022/11/14 08:57:47;;;;;;;;;;;;;;;7.84;98.68;98921.41;8315226;28;19967;-76
2022/11/14 09:01:50;;;;;;;;;;;;;;;7.88;99.00;98929.13;8309283;28;19995;-76
2022/11/14 09:05:52;;;;;;;;;;;;;;;7.93;98.36;98921.41;8322394;28;19975;-76
2022/11/14 09:09:53;;;;;;;;;;;;;;;7.98;98.68;98918.81;8302089;28;19929;-76
2022/11/14 09:13:54;;;;;;;;;;;;;;;8.01;98.25;98924.81;8315087;28;19929;-76
2022/11/14 09:17:56;;;;;;;;;;;;;;;8.04;98.41;98932.56;8294411;28;19933;-76
2022/11/14 09:21:57;;;;;;;;;;;;;;;8.05;98.54;98931.69;8318241;28;19933;-76
2022/11/14 09:26:04;;;;;;;;;;;;;;;8.04;98.30;98932.56;8313964;28;20265;-76
2022/11/14 09:30:05;;;;;;;;;;;;;;;8.04;98.48;98932.56;8301572;28;20399;-78
2022/11/14 09:34:06;;;;;;;;;;;;;;;8.08;98.67;98934.31;8315599;28;19933;-77
2022/11/14 09:38:09;;;;;;;;;;;;;;;8.12;98.50;98925.69;8253266;28;20426;-76
2022/11/14 09:42:37;;;;;;;;;;;;;;;8.18;98.03;98911.88;8252633;28;19925;-77
2022/11/14 09:46:41;;;;;;;;;;;;;;;8.25;98.19;98929.06;8228716;28;19929;-76
2022/11/14 09:50:46;;;;;;;;;;;;;;;8.27;98.08;98932.53;8266733;28;19933;-77
2022/11/14 09:54:51;;;;;;;;;;;;;;;8.29;97.63;98917.03;8266192;28;20234;-77
2022/11/14 09:58:54;;;;;;;;;;;;;;;8.32;98.32;98915.28;8287516;28;19992;-78
2022/11/14 10:03:02;;;;;;;;;;;;;;;8.32;97.87;98915.28;8274764;28;20032;-77
2022/11/14 10:07:13;;;;;;;;;;;;;;;8.31;97.55;98916.16;8254369;28;19929;-76
2022/11/14 10:11:21;;;;;;;;;;;;;;;8.33;97.76;98923.91;8262646;28;20497;-77
2022/11/14 10:15:40;;;;;;;;;;;;;;;8.36;97.44;98916.16;8271709;28;20020;-78
2022/11/14 10:19:45;;;;;;;;;;;;;;;8.36;97.33;98914.44;8284822;28;19979;-77
2022/11/14 10:24:11;;;;;;;;;;;;;;;8.39;97.89;98910.97;8283855;28;19942;-77
2022/11/14 10:28:25;;;;;;;;;;;;;;;8.45;97.66;98921.31;8281827;28;20031;-77
2022/11/14 10:32:36;;;;;;;;;;;;;;;8.52;97.83;98915.25;8276916;28;19996;-77
2022/11/14 10:36:58;;;;;;;;;;;;;;;8.58;97.70;98915.19;8292684;28;20325;-76
2022/11/14 10:41:03;;;;;;;;;;;;;;;8.68;97.80;98903.09;8314725;28;19928;-78
2022/11/14 10:45:22;;;;;;;;;;;;;;;8.77;97.32;98910.81;8315496;28;19987;-78
2022/11/14 10:49:24;;;;;;;;;;;;;;;8.87;97.45;98903.84;8304290;28;20019;-77
2022/11/14 10:53:26;;;;;;;;;;;;;;;8.92;97.05;98904.69;8318232;28;20040;-77
2022/11/14 10:57:27;;;;;;;;;;;;;;;8.98;97.18;98897.75;8304260;28;20441;-77
2022/11/14 11:01:39;;;;;;;;;;;;;;;9.05;96.74;98902.03;8300309;28;19929;-77
2022/11/14 11:05:45;;;;;;;;;;;;;;;9.11;96.11;98890.75;8296573;28;19983;-78
2022/11/14 11:14:17;;;;;;;;;;;;;;;9.19;95.54;98898.50;8302646;28;19929;-77
2022/11/14 11:18:24;;;;;;;;;;;;;;;9.23;95.83;98887.22;8342192;28;20559;-76
2022/11/14 11:22:34;;;;;;;;;;;;;;;9.25;95.33;98883.75;8341936;28;20356;-78
2022/11/14 11:26:35;;;;;;;;;;;;;;;9.27;95.04;98881.16;8340033;28;19936;-77
2022/11/14 11:30:37;;;;;;;;;;;;;;;9.27;95.01;98881.16;8331585;28;19964;-78
2022/11/14 11:34:38;;;;;;;;;;;;;;;9.32;94.79;98885.41;8344400;28;19990;-78
2022/11/14 11:38:40;;;;;;;;;;;;;;;9.35;94.66;98897.50;8345152;28;19933;-77
2022/11/14 11:42:59;;;;;;;;;;;;;;;9.42;94.96;98900.91;8329618;28;19929;-78
2022/11/14 11:47:21;;;;;;;;;;;;;;;9.50;94.50;98894.78;8339482;28;20437;-78
2022/11/14 11:51:25;;;;;;;;;;;;;;;9.55;94.29;98895.63;8343182;28;19929;-78
2022/11/14 11:55:48;;;;;;;;;;;;;;;9.67;94.32;98892.91;8325650;28;19939;-78
2022/11/14 11:59:53;;;;;;;;;;;;;;;9.78;93.30;98887.63;8340341;28;20039;-77
2022/11/14 12:03:55;;;;;;;;;;;;;;;9.87;92.97;98890.13;8319916;28;20043;-78
2022/11/14 12:07:59;;;;;;;;;;;;;;;9.91;91.36;98894.44;8357484;28;20492;-79
2022/11/14 12:12:04;;;;;;;;;;;;;;;9.95;90.60;98897.84;8337889;28;19928;-78
2022/11/14 12:16:14;;;;;;;;;;;;;;;9.95;89.48;98890.06;8316698;28;20301;-77
2022/11/14 12:20:27;;;;;;;;;;;;;;;10.05;88.09;98888.22;8346756;28;19935;-78
2022/11/14 12:24:37;;;;;;;;;;;;;;;10.13;87.63;98895.06;8337743;28;19960;-79
2022/11/14 12:28:39;;;;;;;;;;;;;;;10.24;87.88;98895.00;8326284;28;20510;-78
2022/11/14 12:32:44;;;;;;;;;;;;;;;10.22;86.23;98894.13;8331402;28;20640;-79
2022/11/14 12:36:45;;;;;;;;;;;;;;;10.32;86.04;98887.09;8319286;28;19924;-77
2022/11/14 12:40:55;;;;;;;;;;;;;;;10.35;85.58;98889.66;8331412;28;20362;-79
2022/11/14 12:44:57;;;;;;;;;;;;;;;10.23;84.62;98891.53;8337712;28;19925;-77
2022/11/14 12:48:58;;;;;;;;;;;;;;;10.17;84.69;98888.09;8331356;28;19929;-78
2022/11/14 12:52:59;;;;;;;;;;;;;;;10.20;85.42;98877.69;8333828;28;19929;-78
2022/11/14 12:57:08;;;;;;;;;;;;;;;10.21;85.44;98876.84;8334868;28;20389;-78
2022/11/14 13:01:13;;;;;;;;;;;;;;;10.20;85.93;98883.72;8337404;28;19924;-79
2022/11/14 13:05:50;;;;;;;;;;;;;;;10.18;86.58;98888.09;8333898;28;20329;-79
2022/11/14 13:10:01;;;;;;;;;;;;;;;10.06;86.06;98877.00;8273342;28;20293;-77
2022/11/14 13:22:46;;;;;;;;;;;;;;;9.97;86.53;98875.34;8344935;28;19964;-78
2022/11/14 13:26:49;;;;;;;;;;;;;;;9.97;86.64;98871.03;8364340;28;20655;-79
2022/11/14 13:31:06;;;;;;;;;;;;;;;9.98;87.17;98880.50;8339081;28;19987;-78
2022/11/14 13:35:14;;;;;;;;;;;;;;;9.97;87.44;98877.94;8316388;28;19941;-78
2022/11/14 13:39:31;;;;;;;;;;;;;;;9.95;87.50;98877.97;8314673;28;19937;-78
2022/11/14 13:43:33;;;;;;;;;;;;;;;9.93;88.64;98878.84;8325963;28;19929;-78
2022/11/14 13:47:53;;;;;;;;;;;;;;;9.88;89.33;98875.47;8317468;28;19939;-80
2022/11/14 13:51:55;;;;;;;;;;;;;;;9.84;90.08;98871.16;8326648;28;20699;-80
2022/11/14 13:56:07;;;;;;;;;;;;;;;9.82;90.55;98865.13;8310357;28;19952;-80
2022/11/14 14:00:13;;;;;;;;;;;;;;;9.77;91.09;98872.94;8315309;28;19963;-80
2022/11/14 14:04:30;;;;;;;;;;;;;;;9.67;91.78;98871.31;8324489;28;19957;-79
2022/11/14 14:08:54;;;;;;;;;;;;;;;9.58;92.84;98872.25;8313792;28;19930;-80
2022/11/14 14:13:14;;;;;;;;;;;;;;;9.59;93.61;98870.53;8293844;28;19944;-78
2022/11/14 14:17:16;;;;;;;;;;;;;;;9.53;93.82;98861.09;8279537;28;19930;-78
2022/11/14 14:21:32;;;;;;;;;;;;;;;9.53;94.15;98868.00;8287878;28;19934;-78
2022/11/14 14:25:39;;;;;;;;;;;;;;;9.54;94.84;98869.72;8288468;28;19939;-78
2022/11/14 14:30:01;;;;;;;;;;;;;;;9.53;94.96;98868.88;8274435;28;20540;-78
2022/11/14 14:34:18;;;;;;;;;;;;;;;9.52;94.80;98866.28;8298980;28;19972;-80
2022/11/14 14:38:24;;;;;;;;;;;;;;;9.57;94.90;98862.78;8321468;28;19929;-78
2022/11/14 14:42:28;;;;;;;;;;;;;;;9.59;95.16;98863.63;8319777;28;20333;-80
2022/11/14 14:46:35;;;;;;;;;;;;;;;9.67;95.34;98871.31;8312770;28;19929;-79
2022/11/14 14:50:46;;;;;;;;;;;;;;;9.72;95.17;98874.75;8310618;28;19937;-77
2022/11/14 14:54:55;;;;;;;;;;;;;;;9.79;95.17;98878.13;8327428;28;20024;-78
2022/11/14 14:58:56;;;;;;;;;;;;;;;9.82;94.76;98875.50;8309967;28;19986;-77
2022/11/14 15:02:57;;;;;;;;;;;;;;;9.84;94.55;98884.97;8316379;28;20109;-78
2022/11/14 15:06:59;;;;;;;;;;;;;;;9.89;94.54;98869.41;8322565;28;21691;-77
2022/11/14 15:11:01;;;;;;;;;;;;;;;9.91;94.64;98889.25;8307375;28;19928;-78
2022/11/14 15:15:03;;;;;;;;;;;;;;;9.92;94.79;98879.72;8306319;28;19952;-79
2022/11/14 15:19:04;;;;;;;;;;;;;;;9.94;95.07;98867.59;8325836;28;19933;-78
2022/11/14 15:23:09;;;;;;;;;;;;;;;9.93;95.13;98874.53;8327118;28;20303;-79
2022/11/14 15:27:11;;;;;;;;;;;;;;;9.92;94.99;98878.00;8330962;28;19925;-78
2022/11/14 15:31:20;;;;;;;;;;;;;;;9.91;95.20;98875.41;8321672;28;19975;-78
2022/11/14 15:35:22;;;;;;;;;;;;;;;9.88;95.26;98871.13;8322684;28;19933;-78
2022/11/14 15:39:26;;;;;;;;;;;;;;;9.84;95.56;98866.81;8321612;28;20047;-80
2022/11/14 15:43:43;;;;;;;;;;;;;;;9.82;95.78;98872.91;8317017;28;19933;-78
2022/11/14 15:47:45;;;;;;;;;;;;;;;9.79;96.79;98871.19;8328888;28;19933;-78
2022/11/14 15:51:48;;;;;;;;;;;;;;;9.77;96.93;98870.38;8324639;28;19929;-78
2022/11/14 15:55:50;;;;;;;;;;;;;;;9.74;96.54;98879.91;8303715;28;19936;-79
2022/11/14 15:59:51;;;;;;;;;;;;;;;9.67;97.07;98874.75;8324452;28;19929;-78
2022/11/14 16:03:53;;;;;;;;;;;;;;;9.64;97.01;98868.75;8317377;28;20626;-80
2022/11/14 16:07:54;;;;;;;;;;;;;;;9.58;97.53;98874.00;8318395;28;20002;-78
2022/11/14 16:11:56;;;;;;;;;;;;;;;9.54;97.28;98877.50;8323368;28;20333;-80
2022/11/14 16:15:57;;;;;;;;;;;;;;;9.49;97.52;98874.06;8320346;28;20326;-78
2022/11/14 16:19:58;;;;;;;;;;;;;;;9.45;97.51;98868.06;8310063;28;19933;-79
2022/11/14 16:24:00;;;;;;;;;;;;;;;9.39;97.86;98873.28;8325115;28;19925;-78
2022/11/14 16:28:01;;;;;;;;;;;;;;;9.35;97.74;98874.19;8324661;28;19929;-78
2022/11/14 16:32:03;;;;;;;;;;;;;;;9.31;97.66;98878.50;8313386;28;19926;-79
2022/11/14 16:36:05;;;;;;;;;;;;;;;9.27;97.81;98892.38;8310079;28;19933;-79
2022/11/14 16:40:12;;;;;;;;;;;;;;;9.25;98.11;98886.34;8321909;28;19937;-78
2022/11/14 16:44:17;;;;;;;;;;;;;;;9.23;98.35;98897.59;8327867;28;19955;-79
2022/11/14 16:48:19;;;;;;;;;;;;;;;9.19;98.45;98894.16;8323278;28;19933;-77
2022/11/14 16:52:20;;;;;;;;;;;;;;;9.19;98.58;98896.75;8322857;28;19930;-78
2022/11/14 16:56:21;;;;;;;;;;;;;;;9.17;98.81;98895.06;8324908;28;19929;-78
2022/11/14 17:00:23;;;;;;;;;;;;;;;9.15;98.87;98895.03;8317830;28;19929;-79
2022/11/14 17:04:24;;;;;;;;;;;;;;;9.16;99.01;98895.94;8318194;28;19995;-78
2022/11/14 17:08:25;;;;;;;;;;;;;;;9.11;99.83;98898.53;8324027;28;19929;-78
2022/11/14 17:12:27;;;;;;;;;;;;;;;9.09;100.00;98895.94;8307017;28;20389;-77
2022/11/14 17:16:29;;;;;;;;;;;;;;;9.08;100.00;98894.22;8336067;28;19925;-79
2022/11/14 17:20:31;;;;;;;;;;;;;;;9.11;99.79;98892.50;8318833;28;20039;-77
2022/11/14 17:24:33;;;;;;;;;;;;;;;9.09;100.00;98897.69;8323135;28;19955;-78
2022/11/14 17:28:35;;;;;;;;;;;;;;;9.08;99.79;98896.81;8322487;28;19932;-78
2022/11/14 17:32:36;;;;;;;;;;;;;;;9.09;100.00;98895.09;8321896;28;19929;-77
2022/11/14 17:36:37;;;;;;;;;;;;;;;9.08;100.00;98901.13;8319403;28;19990;-77
2022/11/14 17:40:39;;;;;;;;;;;;;;;9.11;100.00;98905.44;8313306;28;19984;-76
2022/11/14 17:44:40;;;;;;;;;;;;;;;9.10;100.00;98909.75;8315069;28;19937;-77
2022/11/14 17:48:42;;;;;;;;;;;;;;;9.09;100.00;98910.63;8310341;28;19933;-75
2022/11/14 17:52:43;;;;;;;;;;;;;;;9.06;100.00;98908.06;8318156;28;19929;-77
2022/11/14 17:56:45;;;;;;;;;;;;;;;9.03;100.00;98914.13;8300102;28;19956;-76
2022/11/14 18:00:54;;;;;;;;;;;;;;;8.98;100.00;98909.84;8307355;28;19929;-78
2022/11/14 18:04:55;;;;;;;;;;;;;;;8.96;100.00;98911.56;8299389;28;19941;-76
2022/11/14 18:08:59;;;;;;;;;;;;;;;8.93;100.00;98915.03;8314661;28;20574;-76
2022/11/14 18:13:03;;;;;;;;;;;;;;;8.90;100.00;98907.28;8312812;28;19930;-77
2022/11/14 18:17:05;;;;;;;;;;;;;;;8.86;100.00;98907.31;8307511;28;19959;-79
2022/11/14 18:21:14;;;;;;;;;;;;;;;8.82;100.00;98909.06;8312429;28;20713;-76
2022/11/14 18:25:16;;;;;;;;;;;;;;;8.77;100.00;98922.00;8297028;28;19933;-75
2022/11/14 18:29:17;;;;;;;;;;;;;;;8.76;100.00;98927.19;8323373;28;19959;-77
2022/11/14 18:33:19;;;;;;;;;;;;;;;8.76;100.00;98919.44;8297596;28;19929;-76
2022/11/14 18:37:21;;;;;;;;;;;;;;;8.75;100.00;98917.72;8303854;28;19929;-75
2022/11/14 18:41:23;;;;;;;;;;;;;;;8.75;100.00;98913.41;8317014;28;19943;-75
2022/11/14 18:45:24;;;;;;;;;;;;;;;8.72;100.00;98916.00;8311169;28;19929;-76
2022/11/14 18:49:27;;;;;;;;;;;;;;;8.66;100.00;98916.03;8303145;28;19929;-76
2022/11/14 18:53:32;;;;;;;;;;;;;;;8.69;100.00;98925.53;8301213;28;19929;-75
2022/11/14 18:57:33;;;;;;;;;;;;;;;8.68;100.00;98911.72;8317039;28;19969;-76
2022/11/14 19:01:35;;;;;;;;;;;;;;;8.72;100.00;98907.38;8311177;28;19959;-75
2022/11/14 19:05:36;;;;;;;;;;;;;;;8.76;100.00;98916.84;8320249;28;20254;-76
2022/11/14 19:09:38;;;;;;;;;;;;;;;8.79;100.00;98916.81;8319472;28;19925;-76
2022/11/14 19:13:40;;;;;;;;;;;;;;;8.81;100.00;98916.84;8302991;28;19987;-76
2022/11/14 19:17:42;;;;;;;;;;;;;;;8.85;100.00;98931.50;8311728;28;20269;-78
2022/11/14 19:21:46;;;;;;;;;;;;;;;8.87;100.00;98928.03;8320202;28;20400;-76
2022/11/14 19:25:47;;;;;;;;;;;;;;;9.14;100.00;98923.53;8308456;28;19939;-77
2022/11/14 19:29:49;;;;;;;;;;;;;;;9.23;100.00;98921.78;8318605;28;19944;-77
2022/11/14 19:33:50;;;;;;;;;;;;;;;9.22;100.00;98917.47;8312728;28;19939;-76
2022/11/14 19:37:52;;;;;;;;;;;;;;;9.26;100.00;98923.47;8316018;28;20020;-76
2022/11/14 19:41:53;;;;;;;;;;;;;;;9.25;100.00;98917.44;8318470;28;19936;-76
2022/11/14 19:45:59;;;;;;;;;;;;;;;9.25;100.00;98919.16;8310046;28;19948;-78
2022/11/14 19:50:00;;;;;;;;;;;;;;;9.24;100.00;98920.91;8317541;28;19987;-77
2022/11/14 19:54:01;;;;;;;;;;;;;;;9.26;100.00;98920.88;8313515;28;19929;-75
2022/11/14 19:58:03;;;;;;;;;;;;;;;9.31;100.00;98932.06;8315516;28;19929;-75
2022/11/14 20:02:04;;;;;;;;;;;;;;;9.38;100.00;98934.63;8303262;28;19929;-76
2022/11/14 20:06:13;;;;;;;;;;;;;;;9.49;100.00;98942.28;8315615;28;19933;-77
2022/11/14 20:10:15;;;;;;;;;;;;;;;9.60;100.00;98952.59;8316990;28;19929;-78
2022/11/14 20:14:16;;;;;;;;;;;;;;;9.83;100.00;98965.38;8332456;28;20428;-78
2022/11/14 20:18:18;;;;;;;;;;;;;;;10.09;100.00;98962.56;8290713;28;19929;-77
2022/11/14 20:22:19;;;;;;;;;;;;;;;10.35;100.00;98959.72;8317926;28;20052;-77
2022/11/14 20:26:21;;;;;;;;;;;;;;;10.50;100.00;98962.16;8317682;28;20338;-80
2022/11/14 20:30:22;;;;;;;;;;;;;;;10.64;100.00;98956.81;8312030;28;19934;-77
2022/11/14 20:34:24;;;;;;;;;;;;;;;10.69;100.00;98952.44;8312060;28;19933;-77
2022/11/14 20:38:27;;;;;;;;;;;;;;;10.72;100.00;98958.44;8313481;28;19929;-77
2022/11/14 20:42:28;;;;;;;;;;;;;;;10.75;100.00;98961.00;8316810;28;19929;-75
2022/11/14 20:46:29;;;;;;;;;;;;;;;10.75;100.00;98958.41;8292337;28;19994;-77
2022/11/14 20:50:31;;;;;;;;;;;;;;;10.75;100.00;98955.78;8315999;28;19929;-80
2022/11/14 20:54:33;;;;;;;;;;;;;;;10.78;100.00;98953.19;8317589;28;20425;-76
2022/11/14 20:58:34;;;;;;;;;;;;;;;10.81;100.00;98955.75;8298149;28;19928;-76
2022/11/14 21:02:36;;;;;;;;;;;;;;;10.85;100.00;98957.41;8299167;28;19929;-76
2022/11/14 21:06:37;;;;;;;;;;;;;;;10.87;100.00;98945.28;8313523;28;19933;-77
2022/11/14 21:10:45;;;;;;;;;;;;;;;10.88;100.00;98952.19;8315494;28;19933;-76
2022/11/14 21:14:47;;;;;;;;;;;;;;;10.90;100.00;98945.22;8315755;28;19929;-77
2022/11/14 21:18:50;;;;;;;;;;;;;;;10.94;100.00;98940.84;8305960;28;19987;-76
2022/11/14 21:22:52;;;;;;;;;;;;;;;10.94;100.00;98946.03;8303779;28;20067;-78
2022/11/14 21:26:53;;;;;;;;;;;;;;;10.94;100.00;98947.78;8318021;28;20010;-78
2022/11/14 21:30:57;;;;;;;;;;;;;;;10.88;100.00;98944.38;8311454;28;20845;-76